createdAt,value
2023-01-17T00:01:51.980Z,49.53
2023-01-17T00:04:39.909Z,38.67
2023-01-17T00:07:25.230Z,48.50
2023-01-17T00:09:56.762Z,45.80
2023-01-17T00:12:25.999Z,46.07
2023-01-17T00:14:54.849Z,45.88
2023-01-17T00:17:26.021Z,49.83
2023-01-17T00:20:11.375Z,49.90
2023-01-17T00:22:57.102Z,47.83
2023-01-17T00:25:47.511Z,49.27
2023-01-17T00:28:14.924Z,49.90
2023-01-17T00:30:41.846Z,49.67
2023-01-17T00:33:08.632Z,44.50
2023-01-17T00:38:07.941Z,47.53
2023-01-17T00:40:36.833Z,47.33
2023-01-17T00:43:23.683Z,44.93
2023-01-17T00:46:09.487Z,53.57
2023-01-17T00:48:56.396Z,50.77
2023-01-17T00:51:43.284Z,54.70
2023-01-17T00:54:29.228Z,46.42
2023-01-17T00:57:14.679Z,50.83
2023-01-17T01:00:00.043Z,54.23
2023-01-17T01:02:46.296Z,53.27
2023-01-17T01:05:33.018Z,55.10
2023-01-17T01:08:18.850Z,53.47
2023-01-17T01:11:05.656Z,55.90
2023-01-17T01:13:52.518Z,57.50
2023-01-17T01:16:38.041Z,48.40
2023-01-17T01:19:24.543Z,49.33
2023-01-17T01:22:09.916Z,47.60
2023-01-17T01:24:55.360Z,58.67
2023-01-17T01:27:41.150Z,58.50
2023-01-17T01:30:27.052Z,59.33
2023-01-17T01:33:12.602Z,52.60
2023-01-17T01:35:39.515Z,52.73
2023-01-17T01:38:06.513Z,58.03
2023-01-17T01:40:33.428Z,55.83
2023-01-17T01:43:03.175Z,56.53
2023-01-17T01:45:32.393Z,51.93
2023-01-17T01:48:13.809Z,58.87
2023-01-17T01:50:40.825Z,60.80
2023-01-17T01:53:08.227Z,56.43
2023-01-17T01:55:40.616Z,61.00
2023-01-17T01:58:15.482Z,56.43
2023-01-17T02:00:42.497Z,57.90
2023-01-17T02:03:15.365Z,63.90
2023-01-17T02:05:43.791Z,63.20
2023-01-17T02:08:14.589Z,61.87
2023-01-17T02:10:42.618Z,62.73
2023-01-17T02:13:10.309Z,61.60
2023-01-17T02:15:50.205Z,56.30
2023-01-17T02:18:24.261Z,54.57
2023-01-17T02:21:29.317Z,66.53
2023-01-17T02:24:17.251Z,63.17
2023-01-17T02:31:58.166Z,67.20
2023-01-17T02:34:32.834Z,72.93
2023-01-17T02:37:26.046Z,62.27
2023-01-17T02:40:05.054Z,72.10
2023-01-17T02:42:46.889Z,74.87
2023-01-17T02:45:19.696Z,70.67
2023-01-17T02:47:46.949Z,72.17
2023-01-17T02:50:23.830Z,76.37
2023-01-17T02:53:32.831Z,69.07
2023-01-17T02:59:06.053Z,55.03
2023-01-17T03:06:30.886Z,51.93
2023-01-17T03:11:24.867Z,50.50
2023-01-17T03:13:58.461Z,47.87
2023-01-17T03:16:28.613Z,57.07
2023-01-17T03:18:55.467Z,59.33
2023-01-17T03:21:23.606Z,59.43
2023-01-17T03:23:50.617Z,63.10
2023-01-17T03:26:17.480Z,62.23
2023-01-17T03:28:44.593Z,61.67
2023-01-17T03:31:15.934Z,57.27
2023-01-17T03:33:42.808Z,55.87
2023-01-17T03:36:09.810Z,56.33
2023-01-17T03:38:37.577Z,49.60
2023-01-17T03:41:05.397Z,53.50
2023-01-17T03:43:32.199Z,49.83
2023-01-17T03:46:07.033Z,48.97
2023-01-17T03:48:34.431Z,50.07
2023-01-17T03:51:01.296Z,49.93
2023-01-17T03:53:28.164Z,49.07
2023-01-17T03:55:54.956Z,47.73
2023-01-17T03:58:22.855Z,49.22
2023-01-17T04:00:49.858Z,39.30
2023-01-17T04:03:16.921Z,42.33
2023-01-17T04:08:11.244Z,41.20
2023-01-17T04:10:38.067Z,54.77
2023-01-17T04:13:05.905Z,50.00
2023-01-17T04:15:33.520Z,49.53
2023-01-17T04:18:01.132Z,48.23
2023-01-17T04:20:35.126Z,44.97
2023-01-17T04:23:02.551Z,44.70
2023-01-17T04:25:31.034Z,47.27
2023-01-17T04:27:59.813Z,47.83
2023-01-17T04:30:28.349Z,52.70
2023-01-17T04:32:55.921Z,51.87
2023-01-17T04:35:24.903Z,37.83
2023-01-17T04:37:52.599Z,43.90
2023-01-17T04:40:19.574Z,44.60
2023-01-17T04:42:49.140Z,35.40
2023-01-17T04:45:16.218Z,46.83
2023-01-17T04:47:43.341Z,43.37
2023-01-17T04:50:13.070Z,35.53
2023-01-17T04:52:40.205Z,43.67
2023-01-17T04:55:07.663Z,42.13
2023-01-17T04:57:35.026Z,49.40
2023-01-17T05:00:01.892Z,50.57
2023-01-17T05:02:29.020Z,50.10
2023-01-17T05:04:56.568Z,52.33
2023-01-17T05:07:23.716Z,50.53
2023-01-17T05:09:50.520Z,53.20
2023-01-17T05:12:18.617Z,52.80
2023-01-17T05:14:45.457Z,51.93
2023-01-17T05:17:12.689Z,47.63
2023-01-17T05:19:39.719Z,50.90
2023-01-17T05:22:15.240Z,46.63
2023-01-17T05:24:48.316Z,46.17
2023-01-17T05:27:17.932Z,47.42
2023-01-17T05:29:44.731Z,48.27
2023-01-17T05:32:12.217Z,46.43
2023-01-17T05:34:39.032Z,46.43
2023-01-17T05:37:06.671Z,43.97
2023-01-17T05:42:00.237Z,43.67
2023-01-17T05:44:27.874Z,44.53
2023-01-17T05:46:55.439Z,52.33
2023-01-17T05:49:22.383Z,57.03
2023-01-17T05:51:49.335Z,44.17
2023-01-17T05:54:18.700Z,64.70
2023-01-17T05:56:45.541Z,55.13
2023-01-17T05:59:14.184Z,55.40
2023-01-17T06:01:41.328Z,57.70
2023-01-17T06:04:08.358Z,45.80
2023-01-17T06:06:35.207Z,50.93
2023-01-17T06:09:02.061Z,57.60
2023-01-17T06:11:28.869Z,65.67
2023-01-17T06:13:55.715Z,66.77
2023-01-17T06:16:22.625Z,73.57
2023-01-17T06:18:49.542Z,63.07
2023-01-17T06:21:16.428Z,57.33
2023-01-17T06:23:43.275Z,58.07
2023-01-17T06:26:10.628Z,57.00
2023-01-17T06:28:37.604Z,51.03
2023-01-17T06:31:08.953Z,55.20
2023-01-17T06:33:36.194Z,48.03
2023-01-17T06:36:03.401Z,44.37
2023-01-17T06:38:30.322Z,45.83
2023-01-17T06:41:00.424Z,54.97
2023-01-17T06:43:32.645Z,58.13
2023-01-17T06:46:00.844Z,52.40
2023-01-17T06:48:28.092Z,50.93
2023-01-17T06:50:54.932Z,53.07
2023-01-17T06:53:21.848Z,51.20
2023-01-17T06:55:48.818Z,62.57
2023-01-17T06:58:15.647Z,64.70
2023-01-17T07:03:21.225Z,52.83
2023-01-17T07:05:48.749Z,50.70
2023-01-17T07:08:17.149Z,56.53
2023-01-17T07:10:45.088Z,61.33
2023-01-17T07:13:14.613Z,49.03
2023-01-17T07:15:41.577Z,47.33
2023-01-17T07:18:08.461Z,51.90
2023-01-17T07:20:35.494Z,53.20
2023-01-17T07:23:02.504Z,58.97
2023-01-17T07:25:31.677Z,55.57
2023-01-17T07:28:00.921Z,50.93
2023-01-17T07:30:27.989Z,51.30
2023-01-17T07:32:56.955Z,57.57
2023-01-17T07:35:26.808Z,58.63
2023-01-17T07:37:55.038Z,74.20
2023-01-17T07:40:22.832Z,74.73
2023-01-17T07:42:50.019Z,70.87
2023-01-17T07:45:17.737Z,64.63
2023-01-17T07:47:44.890Z,72.15
2023-01-17T07:50:13.697Z,67.28
2023-01-17T07:52:41.174Z,72.07
2023-01-17T07:55:08.973Z,73.57
2023-01-17T07:57:36.060Z,59.73
2023-01-17T08:00:04.475Z,60.63
2023-01-17T08:02:39.036Z,51.00
2023-01-17T08:05:06.079Z,52.03
2023-01-17T08:07:32.907Z,56.63
2023-01-17T08:10:01.300Z,58.95
2023-01-17T08:12:29.524Z,54.55
2023-01-17T08:14:56.522Z,54.70
2023-01-17T08:17:23.389Z,69.75
2023-01-17T08:19:52.206Z,66.40
2023-01-17T08:22:19.125Z,55.38
2023-01-17T08:24:46.061Z,53.92
2023-01-17T08:27:12.893Z,57.60
2023-01-17T08:29:42.886Z,52.88
2023-01-17T08:32:09.768Z,55.95
2023-01-17T08:34:36.674Z,49.35
2023-01-17T08:37:03.571Z,43.50
2023-01-17T08:39:30.388Z,43.40
2023-01-17T08:41:58.235Z,42.03
2023-01-17T08:44:25.138Z,44.25
2023-01-17T08:46:52.411Z,45.08
2023-01-17T08:49:22.604Z,46.20
2023-01-17T08:51:49.715Z,46.90
2023-01-17T08:54:19.532Z,47.17
2023-01-17T08:56:47.992Z,50.60
2023-01-17T08:59:15.264Z,50.08
2023-01-17T09:01:45.909Z,46.95
2023-01-17T09:04:14.356Z,48.22
2023-01-17T09:06:45.468Z,45.40
2023-01-17T09:09:13.789Z,46.50
2023-01-17T09:11:43.927Z,46.08
2023-01-17T09:14:14.337Z,51.22
2023-01-17T09:16:41.326Z,51.35
2023-01-17T09:19:09.452Z,51.60
2023-01-17T09:21:36.270Z,47.60
2023-01-17T09:24:03.167Z,42.97
2023-01-17T09:26:30.695Z,49.33
2023-01-17T09:28:58.799Z,46.50
2023-01-17T09:31:27.290Z,45.08
2023-01-17T09:33:55.878Z,43.53
2023-01-17T09:36:23.969Z,43.65
2023-01-17T09:38:56.894Z,38.28
2023-01-17T09:41:30.665Z,36.13
2023-01-17T09:44:22.551Z,31.55
2023-01-17T09:46:54.261Z,31.42
2023-01-17T09:49:47.904Z,31.08
2023-01-17T09:52:21.536Z,30.10
2023-01-17T09:54:50.982Z,21.92
2023-01-17T09:57:38.371Z,23.38
2023-01-17T10:00:13.839Z,21.55
2023-01-17T10:03:06.317Z,20.48
2023-01-17T10:05:54.800Z,17.90
2023-01-17T10:08:43.764Z,19.73
2023-01-17T10:11:29.603Z,18.27
2023-01-17T10:14:21.240Z,15.20
2023-01-17T10:17:16.497Z,15.98
2023-01-17T10:19:58.611Z,13.55
2023-01-17T10:23:06.110Z,14.43
2023-01-17T10:25:47.224Z,13.25
2023-01-17T10:28:25.339Z,11.88
2023-01-17T10:30:56.428Z,12.45
2023-01-17T10:33:29.094Z,12.77
2023-01-17T10:36:10.801Z,13.90
2023-01-17T10:38:41.130Z,14.80
2023-01-17T10:41:15.835Z,14.63
2023-01-17T10:44:03.875Z,18.33
2023-01-17T10:46:46.486Z,16.25
2023-01-17T10:49:20.281Z,16.48
2023-01-17T10:52:08.632Z,16.75
2023-01-17T10:54:51.480Z,16.20
2023-01-17T10:57:22.914Z,19.67
2023-01-17T10:59:50.631Z,16.60
2023-01-17T11:02:25.225Z,17.02
2023-01-17T11:04:54.681Z,20.08
2023-01-17T11:07:27.385Z,17.35
2023-01-17T11:09:56.859Z,17.20
2023-01-17T11:12:30.334Z,20.00
2023-01-17T11:15:05.658Z,19.70
2023-01-17T11:17:37.619Z,20.52
2023-01-17T11:20:12.237Z,21.92
2023-01-17T11:22:40.424Z,23.45
2023-01-17T11:25:07.662Z,25.98
2023-01-17T11:27:37.702Z,25.73
2023-01-17T11:30:19.512Z,22.48
2023-01-17T11:33:00.204Z,20.98
2023-01-17T11:35:33.004Z,20.10
2023-01-17T11:38:05.257Z,21.90
2023-01-17T11:40:41.226Z,37.95
2023-01-17T11:43:27.742Z,38.30
2023-01-17T11:46:17.480Z,39.50
2023-01-17T11:48:51.428Z,39.25
2023-01-17T11:51:43.491Z,38.65
2023-01-17T11:54:31.971Z,36.47
2023-01-17T11:57:02.687Z,34.97
2023-01-17T11:59:35.290Z,43.65
2023-01-17T12:02:38.199Z,45.28
2023-01-17T12:05:55.215Z,37.63
2023-01-17T12:08:28.636Z,38.75
2023-01-17T12:11:17.169Z,37.95
2023-01-17T12:14:15.152Z,40.22
2023-01-17T12:16:54.214Z,35.00
2023-01-17T12:19:45.909Z,37.63
2023-01-17T12:22:34.103Z,39.70
2023-01-17T12:25:15.371Z,40.20
2023-01-17T12:28:00.477Z,36.50
2023-01-17T12:30:51.816Z,40.20
2023-01-17T12:33:33.882Z,40.63
2023-01-17T12:36:17.786Z,41.70
2023-01-17T12:38:48.131Z,41.95
2023-01-17T12:41:26.897Z,42.33
2023-01-17T12:43:59.008Z,37.65
2023-01-17T12:46:38.897Z,37.15
2023-01-17T12:49:38.711Z,37.22
2023-01-17T12:52:29.418Z,38.65
2023-01-17T12:55:03.157Z,38.75
2023-01-17T12:57:38.582Z,39.83
2023-01-17T13:00:08.312Z,40.58
2023-01-17T13:02:47.429Z,42.15
2023-01-17T13:05:26.160Z,41.63
2023-01-17T13:08:03.420Z,40.10
2023-01-17T13:10:39.762Z,42.63
2023-01-17T13:13:37.293Z,41.25
2023-01-17T13:16:15.397Z,40.85
2023-01-17T13:18:46.740Z,39.63
2023-01-17T13:21:30.525Z,40.40
2023-01-17T13:24:20.613Z,40.47
2023-01-17T13:27:07.072Z,34.72
2023-01-17T13:30:15.607Z,41.42
2023-01-17T13:33:01.676Z,40.97
2023-01-17T13:35:46.598Z,41.75
2023-01-17T13:38:22.295Z,36.55
2023-01-17T13:41:07.603Z,38.58
2023-01-17T13:44:03.185Z,37.22
2023-01-17T13:46:32.063Z,39.40
2023-01-17T13:49:34.170Z,46.50
2023-01-17T13:52:11.146Z,43.65
2023-01-17T13:54:55.558Z,38.42
2023-01-17T13:57:33.028Z,33.42
2023-01-17T14:00:40.488Z,29.10
2023-01-17T14:03:12.117Z,35.35
2023-01-17T14:05:39.184Z,39.28
2023-01-17T14:08:18.572Z,39.50
2023-01-17T14:10:50.804Z,45.65
2023-01-17T14:13:37.371Z,45.83
2023-01-17T14:16:31.520Z,44.85
2023-01-17T14:18:59.026Z,53.72
2023-01-17T14:21:29.122Z,51.47
2023-01-17T14:24:15.224Z,52.08
2023-01-17T14:27:10.298Z,53.28
2023-01-17T14:29:49.485Z,54.75
2023-01-17T14:32:22.163Z,59.65
2023-01-17T14:34:51.399Z,78.00
2023-01-17T14:37:49.281Z,62.00
2023-01-17T14:40:18.492Z,54.80
2023-01-17T14:42:47.578Z,58.88
2023-01-17T14:45:22.138Z,63.97
2023-01-17T14:47:52.178Z,61.47
2023-01-17T14:50:35.167Z,59.65
2023-01-17T14:53:08.724Z,62.35
2023-01-17T14:55:36.040Z,58.05
2023-01-17T14:58:02.938Z,61.08
2023-01-17T15:00:31.078Z,55.58
2023-01-17T15:02:59.518Z,52.58
2023-01-17T15:05:29.014Z,47.10
2023-01-17T15:07:58.328Z,48.30
2023-01-17T15:10:31.780Z,46.38
2023-01-17T15:13:07.840Z,51.30
2023-01-17T15:15:38.577Z,54.60
2023-01-17T15:18:14.604Z,54.30
2023-01-17T15:20:49.308Z,55.13
2023-01-17T15:23:20.535Z,55.42
2023-01-17T15:25:49.859Z,52.60
2023-01-17T15:28:18.068Z,44.20
2023-01-17T15:31:09.217Z,48.60
2023-01-17T15:33:39.305Z,44.65
2023-01-17T15:36:34.756Z,42.92
2023-01-17T15:39:07.377Z,45.05
2023-01-17T15:41:36.200Z,40.47
2023-01-17T15:44:04.981Z,35.70
2023-01-17T15:46:41.160Z,33.45
2023-01-17T15:49:20.365Z,30.13
2023-01-17T15:52:08.938Z,30.30
2023-01-17T15:54:40.739Z,38.05
2023-01-17T15:57:22.685Z,29.33
2023-01-17T16:00:14.905Z,37.17
2023-01-17T16:02:44.463Z,42.97
2023-01-17T16:05:33.314Z,43.10
2023-01-17T16:08:03.420Z,32.05
2023-01-17T16:10:39.138Z,41.28
2023-01-17T16:13:08.408Z,33.33
2023-01-17T16:15:36.905Z,31.17
2023-01-17T16:18:09.630Z,32.25
2023-01-17T16:20:46.676Z,29.48
2023-01-17T16:23:17.274Z,49.42
2023-01-17T16:25:44.732Z,41.10
2023-01-17T16:28:12.063Z,34.92
2023-01-17T16:30:41.367Z,32.45
2023-01-17T16:33:11.523Z,31.35
2023-01-17T16:35:39.555Z,44.30
2023-01-17T16:38:15.773Z,30.10
2023-01-17T16:40:44.696Z,41.53
2023-01-17T16:43:13.660Z,42.03
2023-01-17T16:45:52.891Z,47.63
2023-01-17T16:48:20.744Z,37.90
2023-01-17T16:50:53.129Z,27.63
2023-01-17T16:53:24.670Z,25.10
2023-01-17T16:55:55.553Z,25.05
2023-01-17T16:58:22.474Z,23.83
2023-01-17T17:00:50.456Z,18.33
2023-01-17T17:03:19.529Z,22.75
2023-01-17T17:05:55.336Z,23.48
2023-01-17T17:08:22.476Z,25.50
2023-01-17T17:10:51.819Z,24.30
2023-01-17T17:13:18.755Z,21.42
2023-01-17T17:15:45.950Z,19.83
2023-01-17T17:18:17.500Z,14.13
2023-01-17T17:20:45.541Z,11.23
2023-01-17T17:23:12.506Z,11.18
2023-01-17T17:25:41.511Z,17.92
2023-01-17T17:28:10.892Z,14.68
2023-01-17T17:30:37.849Z,17.45
2023-01-17T17:33:04.761Z,17.23
2023-01-17T17:35:34.524Z,17.55
2023-01-17T17:38:01.376Z,22.58
2023-01-17T17:40:31.035Z,32.72
2023-01-17T17:42:57.827Z,26.50
2023-01-17T17:45:24.771Z,24.25
2023-01-17T17:47:51.779Z,17.48
2023-01-17T17:50:18.919Z,22.83
2023-01-17T17:52:45.759Z,23.98
2023-01-17T17:55:13.278Z,18.58
2023-01-17T17:57:40.199Z,20.25
2023-01-17T18:00:07.804Z,19.38
2023-01-17T18:02:34.728Z,20.52
2023-01-17T18:05:02.479Z,20.48
2023-01-17T18:07:32.769Z,19.13
2023-01-17T18:10:02.796Z,20.23
2023-01-17T18:12:29.754Z,19.60
2023-01-17T18:14:56.640Z,16.80
2023-01-17T18:17:23.619Z,16.55
2023-01-17T18:19:51.103Z,20.30
2023-01-17T18:22:18.315Z,20.55
2023-01-17T18:24:46.365Z,16.88
2023-01-17T18:27:14.147Z,19.00
2023-01-17T18:29:43.426Z,19.40
2023-01-17T18:32:10.372Z,23.20
2023-01-17T18:34:41.513Z,23.10
2023-01-17T18:37:08.805Z,18.48
2023-01-17T18:39:35.736Z,17.10
2023-01-17T18:42:02.589Z,17.42
2023-01-17T18:44:30.266Z,14.70
2023-01-17T18:47:04.575Z,12.88
2023-01-17T18:49:33.778Z,10.45
2023-01-17T18:52:01.244Z,9.85
2023-01-17T18:54:28.356Z,10.48
2023-01-17T18:56:56.246Z,9.15
2023-01-17T18:59:23.570Z,9.15
2023-01-17T19:01:50.543Z,10.43
2023-01-17T19:04:17.902Z,9.18
2023-01-17T19:06:47.775Z,9.13
2023-01-17T19:09:15.653Z,9.25
2023-01-17T19:11:44.971Z,8.55
2023-01-17T19:14:12.983Z,7.53
2023-01-17T19:16:41.456Z,9.10
2023-01-17T19:19:11.164Z,7.43
2023-01-17T19:21:38.444Z,7.38
2023-01-17T19:24:05.581Z,6.57
2023-01-17T19:26:33.289Z,7.82
2023-01-17T19:29:00.467Z,9.70
2023-01-17T19:31:29.495Z,8.60
2023-01-17T19:33:59.197Z,8.77
2023-01-17T19:36:35.665Z,10.60
2023-01-17T19:39:06.343Z,9.30
2023-01-17T19:41:35.631Z,10.63
2023-01-17T19:44:09.939Z,12.25
2023-01-17T19:46:37.578Z,10.23
2023-01-17T19:49:07.656Z,9.43
2023-01-17T19:51:35.954Z,8.13
2023-01-17T19:54:04.221Z,8.38
2023-01-17T19:56:31.639Z,9.95
2023-01-17T19:59:01.409Z,10.52
2023-01-17T20:01:31.676Z,10.77
2023-01-17T20:03:59.486Z,13.48
2023-01-17T20:06:29.278Z,18.48
2023-01-17T20:08:59.264Z,16.67
2023-01-17T20:11:27.459Z,16.20
2023-01-17T20:13:56.822Z,15.20
2023-01-17T20:16:25.465Z,13.15
2023-01-17T20:18:52.913Z,10.48
2023-01-17T20:21:24.684Z,12.77
2023-01-17T20:23:54.452Z,11.45
2023-01-17T20:26:31.259Z,11.43
2023-01-17T20:28:58.149Z,10.20
2023-01-17T20:31:25.993Z,9.85
2023-01-17T20:33:55.145Z,9.32
2023-01-17T20:36:24.251Z,9.60
2023-01-17T20:38:51.425Z,9.25
2023-01-17T20:41:20.210Z,7.53
2023-01-17T20:43:53.800Z,6.50
2023-01-17T20:46:23.194Z,8.13
2023-01-17T20:48:53.044Z,7.30
2023-01-17T20:51:24.746Z,10.93
2023-01-17T20:53:56.047Z,8.35
2023-01-17T20:56:23.798Z,8.05
2023-01-17T20:58:54.471Z,5.85
2023-01-17T21:01:22.760Z,8.02
2023-01-17T21:03:51.774Z,10.48
2023-01-17T21:06:22.627Z,7.68
2023-01-17T21:08:50.431Z,8.93
2023-01-17T21:11:19.847Z,8.10
2023-01-17T21:13:48.855Z,10.48
2023-01-17T21:16:16.975Z,9.75
2023-01-17T21:18:48.020Z,9.13
2023-01-17T21:21:22.186Z,9.05
2023-01-17T21:23:50.877Z,9.90
2023-01-17T21:26:19.134Z,9.30
2023-01-17T21:28:47.566Z,9.93
2023-01-17T21:31:26.433Z,6.45
2023-01-17T21:33:59.128Z,7.47
2023-01-17T21:36:35.593Z,7.82
2023-01-17T21:39:06.681Z,5.60
2023-01-17T21:41:36.847Z,6.85
2023-01-17T21:44:13.105Z,3.80
2023-01-17T21:46:41.112Z,5.32
2023-01-17T21:49:12.945Z,7.70
2023-01-17T21:51:54.147Z,4.85
2023-01-17T21:54:45.128Z,4.05
2023-01-17T21:57:37.851Z,5.10
2023-01-17T22:00:09.344Z,5.00
2023-01-17T22:02:40.034Z,5.43
2023-01-17T22:05:08.855Z,4.50
2023-01-17T22:07:36.178Z,5.30
2023-01-17T22:10:03.437Z,3.42
2023-01-17T22:12:30.263Z,3.85
2023-01-17T22:14:57.750Z,2.80
2023-01-17T22:17:24.578Z,3.10
2023-01-17T22:19:51.681Z,3.58
2023-01-17T22:22:18.680Z,5.93
2023-01-17T22:24:45.911Z,5.88
2023-01-17T22:27:15.186Z,5.00
2023-01-17T22:29:46.009Z,3.70
2023-01-17T22:32:13.178Z,5.00
2023-01-17T22:34:39.979Z,3.83
2023-01-17T22:37:10.440Z,6.07
2023-01-17T22:39:38.752Z,6.05
2023-01-17T22:42:06.427Z,4.65
2023-01-17T22:44:35.265Z,2.95
2023-01-17T22:47:03.318Z,3.97
2023-01-17T22:49:30.135Z,2.20
2023-01-17T22:51:57.599Z,3.20
2023-01-17T22:54:24.519Z,3.60
2023-01-17T22:56:51.586Z,4.32
2023-01-17T22:59:18.704Z,2.33
2023-01-17T23:01:49.813Z,3.28
2023-01-17T23:04:17.339Z,3.85
2023-01-17T23:06:44.807Z,3.83
2023-01-17T23:09:14.757Z,3.78
2023-01-17T23:11:52.494Z,2.72
2023-01-17T23:14:22.823Z,4.15
2023-01-17T23:17:28.807Z,3.30
2023-01-17T23:19:55.907Z,5.88
2023-01-17T23:22:27.656Z,4.75
2023-01-17T23:25:01.278Z,4.43
2023-01-17T23:27:51.032Z,6.93
2023-01-17T23:30:25.295Z,7.18
2023-01-17T23:32:55.500Z,5.85
2023-01-17T23:35:25.762Z,7.15
2023-01-17T23:38:11.288Z,3.83
2023-01-17T23:40:39.719Z,6.05
2023-01-17T23:43:24.129Z,3.72
2023-01-17T23:45:53.446Z,4.30
2023-01-17T23:48:21.322Z,1.75
2023-01-17T23:50:48.828Z,2.28
2023-01-17T23:53:23.950Z,2.90
2023-01-17T23:55:54.328Z,4.57
2023-01-17T23:58:26.198Z,3.70
